createdAt,value
2019-03-05T00:02:05.880Z,1.50
2019-03-05T00:04:35.373Z,1.40
2019-03-05T00:07:04.911Z,1.60
2019-03-05T00:09:34.380Z,1.30
2019-03-05T00:12:04.231Z,1.30
2019-03-05T00:14:33.717Z,1.33
2019-03-05T00:17:03.185Z,1.50
2019-03-05T00:19:32.669Z,1.20
2019-03-05T00:22:02.127Z,1.40
2019-03-05T00:25:06.180Z,1.20
2019-03-05T00:27:41.811Z,1.20
2019-03-05T00:30:19.632Z,1.40
2019-03-05T00:32:52.123Z,1.07
2019-03-05T00:35:39.500Z,1.10
2019-03-05T00:38:23.627Z,1.33
2019-03-05T00:41:24.505Z,1.10
2019-03-05T00:44:24.481Z,1.30
2019-03-05T00:47:13.164Z,1.40
2019-03-05T00:50:12.984Z,1.50
2019-03-05T00:53:04.519Z,1.10
2019-03-05T00:56:17.019Z,1.30
2019-03-05T00:59:30.439Z,1.20
2019-03-05T01:02:23.411Z,1.33
2019-03-05T01:05:18.322Z,1.30
2019-03-05T01:07:47.785Z,1.50
2019-03-05T01:10:17.339Z,1.40
2019-03-05T01:12:46.881Z,1.27
2019-03-05T01:15:16.538Z,1.20
2019-03-05T01:17:46.019Z,1.20
2019-03-05T01:20:15.572Z,1.43
2019-03-05T01:22:45.042Z,1.80
2019-03-05T01:25:27.768Z,1.60
2019-03-05T01:27:57.243Z,1.60
2019-03-05T01:30:36.219Z,1.60
2019-03-05T01:33:10.376Z,1.40
2019-03-05T01:35:58.891Z,1.40
2019-03-05T01:38:30.003Z,1.60
2019-03-05T01:41:04.225Z,1.60
2019-03-05T01:43:33.758Z,1.53
2019-03-05T01:46:03.228Z,1.80
2019-03-05T01:48:32.758Z,1.70
2019-03-05T01:51:02.223Z,1.70
2019-03-05T01:53:31.689Z,1.47
2019-03-05T01:56:01.179Z,2.00
2019-03-05T01:58:30.758Z,1.60
2019-03-05T02:01:00.230Z,1.67
2019-03-05T02:03:29.876Z,1.70
2019-03-05T02:05:59.533Z,1.63
2019-03-05T02:08:29.067Z,1.63
2019-03-05T02:10:58.896Z,1.50
2019-03-05T02:13:28.446Z,1.33
2019-03-05T02:15:58.036Z,1.60
2019-03-05T02:18:27.841Z,1.63
2019-03-05T02:20:57.333Z,1.57
2019-03-05T02:23:53.191Z,1.60
2019-03-05T02:26:52.918Z,1.63
2019-03-05T02:29:58.689Z,2.00
2019-03-05T02:32:51.494Z,1.80
2019-03-05T02:35:34.725Z,1.87
2019-03-05T02:38:45.682Z,1.77
2019-03-05T02:42:11.527Z,1.67
2019-03-05T02:45:09.834Z,1.50
2019-03-05T02:48:34.206Z,1.70
2019-03-05T02:51:32.632Z,1.60
2019-03-05T02:54:37.891Z,1.87
2019-03-05T02:57:09.736Z,2.00
2019-03-05T02:59:39.210Z,1.73
2019-03-05T03:02:28.351Z,1.53
2019-03-05T03:05:15.277Z,1.63
2019-03-05T03:07:44.710Z,1.70
2019-03-05T03:10:16.257Z,1.67
2019-03-05T03:12:45.736Z,2.17
2019-03-05T03:15:16.164Z,1.80
2019-03-05T03:17:45.838Z,1.77
2019-03-05T03:20:17.069Z,1.77
2019-03-05T03:22:46.410Z,1.80
2019-03-05T03:25:17.683Z,1.83
2019-03-05T03:27:47.073Z,2.00
2019-03-05T03:30:18.288Z,2.03
2019-03-05T03:32:47.698Z,1.63
2019-03-05T03:35:17.092Z,1.87
2019-03-05T03:37:46.427Z,1.60
2019-03-05T03:40:17.836Z,1.93
2019-03-05T03:42:47.346Z,1.60
2019-03-05T03:45:24.363Z,1.77
2019-03-05T03:47:53.786Z,1.47
2019-03-05T03:50:23.257Z,1.50
2019-03-05T03:52:52.649Z,1.67
2019-03-05T03:55:22.080Z,1.70
2019-03-05T03:57:51.553Z,1.40
2019-03-05T04:00:22.440Z,1.43
2019-03-05T04:02:51.981Z,1.27
2019-03-05T04:05:21.434Z,1.30
2019-03-05T04:07:50.867Z,1.37
2019-03-05T04:10:20.394Z,1.73
2019-03-05T04:12:49.813Z,1.27
2019-03-05T04:15:20.485Z,1.57
2019-03-05T04:17:50.018Z,1.20
2019-03-05T04:20:25.824Z,1.30
2019-03-05T04:22:55.297Z,1.30
2019-03-05T04:25:24.704Z,1.07
2019-03-05T04:27:54.046Z,1.27
2019-03-05T04:30:23.378Z,1.50
2019-03-05T04:32:52.754Z,1.30
2019-03-05T04:35:22.088Z,1.37
2019-03-05T04:37:51.420Z,1.13
2019-03-05T04:40:20.774Z,1.37
2019-03-05T04:42:50.174Z,1.50
2019-03-05T04:45:53.623Z,1.50
2019-03-05T04:48:22.947Z,1.40
2019-03-05T04:51:04.259Z,1.50
2019-03-05T04:53:33.586Z,1.57
2019-03-05T04:56:02.890Z,1.30
2019-03-05T04:58:33.054Z,1.60
2019-03-05T05:01:02.385Z,1.67
2019-03-05T05:03:31.762Z,1.40
2019-03-05T05:06:01.084Z,1.83
2019-03-05T05:08:30.423Z,1.87
2019-03-05T05:10:59.742Z,1.77
2019-03-05T05:13:29.151Z,1.70
2019-03-05T05:15:58.580Z,1.70
2019-03-05T05:18:27.896Z,1.70
2019-03-05T05:20:57.347Z,2.27
2019-03-05T05:23:26.673Z,1.80
2019-03-05T05:25:57.276Z,2.10
2019-03-05T05:28:26.614Z,1.87
2019-03-05T05:30:56.027Z,1.77
2019-03-05T05:33:25.364Z,2.00
2019-03-05T05:35:54.711Z,1.77
2019-03-05T05:38:24.044Z,2.00
2019-03-05T05:40:53.375Z,1.77
2019-03-05T05:43:25.194Z,2.23
2019-03-05T05:45:54.761Z,1.80
2019-03-05T05:48:24.134Z,2.00
2019-03-05T05:50:53.534Z,1.90
2019-03-05T05:53:22.850Z,1.80
2019-03-05T05:55:52.229Z,1.73
2019-03-05T05:58:21.551Z,2.13
2019-03-05T06:00:56.050Z,1.90
2019-03-05T06:03:25.421Z,1.90
2019-03-05T06:05:55.106Z,1.80
2019-03-05T06:08:24.485Z,1.90
2019-03-05T06:10:54.033Z,1.90
2019-03-05T06:13:23.504Z,1.90
2019-03-05T06:15:52.842Z,1.60
2019-03-05T06:18:22.267Z,1.90
2019-03-05T06:20:51.608Z,1.93
2019-03-05T06:23:20.932Z,1.63
2019-03-05T06:25:50.298Z,2.00
2019-03-05T06:28:19.673Z,1.80
2019-03-05T06:30:49.340Z,1.73
2019-03-05T06:33:18.756Z,1.80
2019-03-05T06:35:48.108Z,2.10
2019-03-05T06:38:17.532Z,2.23
2019-03-05T06:40:46.852Z,2.73
2019-03-05T06:43:16.282Z,2.60
2019-03-05T06:45:45.604Z,2.10
2019-03-05T06:48:15.008Z,2.07
2019-03-05T06:50:44.334Z,1.97
2019-03-05T06:53:16.723Z,2.20
2019-03-05T06:55:46.083Z,2.10
2019-03-05T06:58:15.512Z,2.30
2019-03-05T07:00:44.898Z,1.80
2019-03-05T07:03:14.212Z,2.13
2019-03-05T07:06:19.358Z,2.20
2019-03-05T07:08:56.822Z,2.00
2019-03-05T07:11:59.800Z,2.07
2019-03-05T07:15:04.782Z,1.90
2019-03-05T07:17:41.523Z,2.30
2019-03-05T07:21:01.335Z,1.90
2019-03-05T07:24:01.469Z,2.00
2019-03-05T07:26:31.595Z,2.00
2019-03-05T07:29:01.984Z,2.40
2019-03-05T07:31:31.397Z,2.00
2019-03-05T07:34:00.760Z,2.00
2019-03-05T07:36:30.192Z,2.33
2019-03-05T07:38:59.516Z,1.97
2019-03-05T07:41:28.926Z,1.97
2019-03-05T07:43:58.274Z,2.00
2019-03-05T07:46:27.891Z,2.33
2019-03-05T07:48:57.485Z,2.10
2019-03-05T07:51:27.135Z,1.93
2019-03-05T07:53:56.826Z,1.87
2019-03-05T07:56:26.539Z,1.80
2019-03-05T07:58:56.145Z,2.03
2019-03-05T08:01:25.832Z,1.80
2019-03-05T08:03:55.173Z,1.80
2019-03-05T08:06:24.602Z,1.53
2019-03-05T08:09:31.190Z,1.63
2019-03-05T08:12:08.622Z,1.40
2019-03-05T08:15:09.305Z,1.50
2019-03-05T08:17:39.197Z,1.53
2019-03-05T08:20:10.482Z,1.57
2019-03-05T08:22:40.306Z,1.80
2019-03-05T08:25:10.447Z,1.70
2019-03-05T08:27:39.754Z,1.70
2019-03-05T08:30:14.956Z,1.70
2019-03-05T08:32:44.510Z,1.50
2019-03-05T08:35:14.040Z,1.70
2019-03-05T08:37:43.430Z,1.63
2019-03-05T08:40:15.884Z,1.70
2019-03-05T08:42:44.107Z,1.63
2019-03-05T08:45:14.172Z,1.77
2019-03-05T08:47:43.667Z,1.60
2019-03-05T08:50:13.445Z,1.70
2019-03-05T08:52:42.880Z,1.67
2019-03-05T08:55:15.483Z,1.37
2019-03-05T08:57:44.831Z,1.60
2019-03-05T09:00:15.810Z,1.33
2019-03-05T09:02:49.057Z,1.40
2019-03-05T09:05:16.852Z,1.40
2019-03-05T09:07:46.278Z,1.53
2019-03-05T09:10:16.097Z,1.80
2019-03-05T09:12:45.524Z,1.40
2019-03-05T09:15:16.280Z,1.40
2019-03-05T09:17:45.711Z,1.67
2019-03-05T09:20:16.096Z,1.10
2019-03-05T09:22:45.609Z,1.57
2019-03-05T09:25:15.385Z,1.50
2019-03-05T09:27:45.039Z,1.37
2019-03-05T09:30:17.177Z,1.50
2019-03-05T09:32:46.615Z,1.60
2019-03-05T09:35:16.216Z,1.67
2019-03-05T09:37:45.867Z,1.93
2019-03-05T09:40:17.974Z,1.63
2019-03-05T09:42:47.448Z,1.83
2019-03-05T09:45:17.369Z,1.90
2019-03-05T09:47:46.868Z,1.60
2019-03-05T09:50:16.891Z,1.83
2019-03-05T09:52:54.921Z,1.60
2019-03-05T09:55:19.302Z,1.80
2019-03-05T09:57:53.341Z,2.07
2019-03-05T10:00:23.425Z,1.43
2019-03-05T10:02:52.964Z,2.30
2019-03-05T10:05:22.500Z,1.80
2019-03-05T10:07:52.358Z,1.80
2019-03-05T10:10:23.204Z,1.90
2019-03-05T10:12:52.847Z,1.50
2019-03-05T10:15:22.619Z,1.60
2019-03-05T10:17:52.095Z,1.80
2019-03-05T10:20:22.202Z,1.40
2019-03-05T10:22:51.909Z,1.53
2019-03-05T10:25:22.411Z,1.60
2019-03-05T10:27:52.036Z,1.73
2019-03-05T10:30:25.013Z,1.30
2019-03-05T10:32:54.858Z,1.60
2019-03-05T10:35:25.837Z,1.57
2019-03-05T10:37:56.909Z,1.20
2019-03-05T10:40:31.607Z,1.50
2019-03-05T10:43:08.425Z,1.40
2019-03-05T10:45:33.162Z,1.40
2019-03-05T10:48:02.617Z,1.60
2019-03-05T10:50:32.480Z,1.50
2019-03-05T10:53:01.932Z,1.80
2019-03-05T10:55:31.414Z,1.23
2019-03-05T10:58:00.901Z,1.30
2019-03-05T11:00:31.355Z,1.80
2019-03-05T11:03:00.858Z,1.43
2019-03-05T11:05:32.709Z,1.50
2019-03-05T11:08:02.234Z,1.37
2019-03-05T11:10:32.164Z,1.30
2019-03-05T11:13:01.986Z,1.37
2019-03-05T11:15:31.898Z,1.40
2019-03-05T11:18:01.354Z,1.50
2019-03-05T11:20:30.771Z,1.70
2019-03-05T11:23:00.167Z,1.50
2019-03-05T11:25:29.915Z,1.60
2019-03-05T11:27:59.357Z,1.40
2019-03-05T11:30:36.184Z,1.50
2019-03-05T11:32:59.887Z,1.50
2019-03-05T11:35:32.600Z,1.67
2019-03-05T11:38:01.997Z,1.23
2019-03-05T11:40:32.551Z,1.40
2019-03-05T11:43:08.420Z,1.90
2019-03-05T11:45:41.118Z,1.70
2019-03-05T11:48:10.614Z,1.20
2019-03-05T11:50:40.092Z,1.40
2019-03-05T11:53:09.712Z,1.40
2019-03-05T11:55:42.095Z,1.40
2019-03-05T11:58:11.595Z,1.50
2019-03-05T12:00:49.024Z,1.50
2019-03-05T12:03:18.523Z,1.30
2019-03-05T12:05:47.977Z,1.70
2019-03-05T12:08:17.506Z,1.33
2019-03-05T12:10:46.957Z,1.60
2019-03-05T12:13:16.623Z,1.67
2019-03-05T12:15:46.072Z,1.57
2019-03-05T12:18:15.613Z,1.60
2019-03-05T12:20:45.064Z,1.50
2019-03-05T12:23:14.594Z,1.53
2019-03-05T12:25:44.463Z,1.47
2019-03-05T12:28:13.941Z,1.40
2019-03-05T12:30:43.369Z,1.40
2019-03-05T12:33:12.760Z,1.30
2019-03-05T12:35:42.190Z,1.70
2019-03-05T12:38:11.571Z,1.60
2019-03-05T12:40:41.039Z,1.53
2019-03-05T12:43:10.454Z,1.43
2019-03-05T12:45:39.812Z,1.60
2019-03-05T12:48:09.204Z,1.27
2019-03-05T12:50:38.659Z,1.37
2019-03-05T12:53:08.054Z,1.50
2019-03-05T12:55:37.487Z,1.70
2019-03-05T12:58:06.927Z,1.40
2019-03-05T13:00:36.384Z,1.63
2019-03-05T13:03:06.041Z,1.47
2019-03-05T13:05:35.501Z,1.27
2019-03-05T13:08:05.238Z,1.47
2019-03-05T13:10:35.903Z,1.57
2019-03-05T13:13:05.897Z,1.50
2019-03-05T13:15:35.435Z,1.50
2019-03-05T13:18:05.087Z,1.50
2019-03-05T13:20:34.619Z,1.30
2019-03-05T13:23:08.843Z,1.50
2019-03-05T13:25:38.183Z,1.50
2019-03-05T13:28:06.730Z,1.43
2019-03-05T13:30:36.187Z,1.37
2019-03-05T13:33:05.600Z,1.43
2019-03-05T13:35:34.948Z,1.60
2019-03-05T13:38:07.676Z,1.53
2019-03-05T13:40:38.360Z,1.97
2019-03-05T13:43:07.788Z,1.70
2019-03-05T13:45:37.280Z,1.70
2019-03-05T13:48:10.746Z,1.53
2019-03-05T13:51:28.618Z,1.80
2019-03-05T13:54:18.967Z,1.63
2019-03-05T13:57:06.549Z,1.50
2019-03-05T13:59:52.002Z,1.50
2019-03-05T14:02:30.263Z,1.67
2019-03-05T14:05:35.666Z,1.90
2019-03-05T14:08:37.523Z,1.53
2019-03-05T14:11:06.975Z,1.70
2019-03-05T14:13:36.359Z,1.70
2019-03-05T14:16:07.741Z,1.67
2019-03-05T14:18:37.200Z,1.80
2019-03-05T14:21:06.673Z,1.80
2019-03-05T14:23:36.122Z,1.50
2019-03-05T14:26:06.173Z,1.60
2019-03-05T14:28:35.570Z,1.23
2019-03-05T14:31:05.327Z,1.80
2019-03-05T14:33:34.820Z,1.67
2019-03-05T14:36:04.224Z,1.80
2019-03-05T14:38:34.087Z,1.80
2019-03-05T14:41:03.539Z,1.57
2019-03-05T14:43:33.089Z,1.53
2019-03-05T14:46:02.653Z,1.77
2019-03-05T14:48:32.112Z,1.87
2019-03-05T14:51:01.446Z,2.23
2019-03-05T14:53:30.943Z,1.80
2019-03-05T14:56:00.415Z,2.27
2019-03-05T14:58:29.831Z,2.53
2019-03-05T15:00:59.258Z,2.17
2019-03-05T15:03:33.167Z,2.10
2019-03-05T15:06:02.627Z,1.83
2019-03-05T15:08:32.120Z,2.20
2019-03-05T15:11:01.515Z,2.30
2019-03-05T15:13:30.873Z,2.20
2019-03-05T15:16:00.312Z,2.70
2019-03-05T15:18:29.740Z,2.27
2019-03-05T15:20:59.213Z,2.00
2019-03-05T15:23:28.674Z,2.00
2019-03-05T15:25:58.234Z,2.10
2019-03-05T15:28:27.660Z,2.00
2019-03-05T15:30:57.118Z,2.10
2019-03-05T15:33:26.482Z,1.80
2019-03-05T15:35:55.918Z,2.00
2019-03-05T15:38:25.385Z,1.87
2019-03-05T15:40:54.878Z,1.93
2019-03-05T15:43:24.400Z,1.97
2019-03-05T15:45:53.949Z,2.10
2019-03-05T15:48:23.387Z,2.00
2019-03-05T15:50:52.896Z,2.43
2019-03-05T15:53:22.287Z,2.43
2019-03-05T15:55:51.711Z,2.40
2019-03-05T15:58:21.206Z,2.63
2019-03-05T16:00:50.749Z,2.50
2019-03-05T16:03:20.480Z,2.30
2019-03-05T16:05:49.869Z,2.47
2019-03-05T16:08:20.897Z,2.70
2019-03-05T16:10:54.084Z,2.50
2019-03-05T16:13:21.684Z,2.20
2019-03-05T16:15:51.164Z,2.07
2019-03-05T16:18:20.641Z,2.40
2019-03-05T16:20:50.164Z,1.70
2019-03-05T16:23:19.560Z,1.83
2019-03-05T16:25:50.334Z,1.87
2019-03-05T16:28:21.968Z,1.70
2019-03-05T16:31:11.311Z,1.63
2019-03-05T16:33:58.439Z,2.00
2019-03-05T16:36:40.947Z,1.70
2019-03-05T16:39:46.337Z,1.77
2019-03-05T16:42:34.576Z,1.60
2019-03-05T16:45:23.146Z,2.17
2019-03-05T16:48:09.070Z,2.40
2019-03-05T16:51:01.167Z,1.77
2019-03-05T16:54:04.674Z,1.80
2019-03-05T16:56:58.928Z,2.43
2019-03-05T16:59:49.844Z,1.80
2019-03-05T17:02:45.240Z,1.30
2019-03-05T17:05:33.316Z,1.40
2019-03-05T17:08:15.077Z,1.50
2019-03-05T17:11:06.572Z,1.30
2019-03-05T17:13:36.008Z,1.40
2019-03-05T17:16:05.526Z,1.50
2019-03-05T17:18:34.893Z,1.80
2019-03-05T17:21:04.378Z,1.70
2019-03-05T17:23:33.851Z,1.63
2019-03-05T17:26:03.315Z,1.63
2019-03-05T17:28:33.029Z,1.60
2019-03-05T17:31:02.722Z,1.67
2019-03-05T17:33:32.645Z,1.70
2019-03-05T17:36:02.043Z,1.97
2019-03-05T17:38:31.473Z,2.10
2019-03-05T17:41:00.943Z,1.87
2019-03-05T17:43:30.426Z,2.33
2019-03-05T17:45:59.935Z,2.00
2019-03-05T17:48:29.372Z,2.20
2019-03-05T17:50:58.914Z,2.23
2019-03-05T17:53:28.394Z,2.50
2019-03-05T17:55:57.888Z,2.10
2019-03-05T17:58:27.330Z,1.80
2019-03-05T18:00:57.312Z,1.90
2019-03-05T18:03:26.772Z,1.67
2019-03-05T18:05:56.152Z,2.13
2019-03-05T18:08:25.705Z,1.90
2019-03-05T18:10:55.160Z,1.87
2019-03-05T18:13:24.621Z,1.90
2019-03-05T18:15:54.097Z,2.30
2019-03-05T18:18:23.764Z,2.10
2019-03-05T18:20:53.315Z,2.30
2019-03-05T18:23:22.695Z,2.40
2019-03-05T18:25:52.080Z,2.33
2019-03-05T18:28:21.545Z,2.70
2019-03-05T18:30:50.963Z,2.27
2019-03-05T18:33:20.414Z,2.47
2019-03-05T18:35:50.031Z,2.30
2019-03-05T18:38:19.543Z,2.50
2019-03-05T18:40:49.105Z,2.37
2019-03-05T18:43:18.801Z,2.70
2019-03-05T18:45:48.261Z,2.70
2019-03-05T18:48:17.738Z,2.50
2019-03-05T18:50:50.069Z,2.47
2019-03-05T18:53:19.663Z,2.60
2019-03-05T18:55:49.133Z,2.83
2019-03-05T18:58:18.712Z,2.73
2019-03-05T19:00:48.202Z,2.50
2019-03-05T19:03:17.694Z,2.00
2019-03-05T19:05:47.381Z,2.27
2019-03-05T19:08:16.799Z,2.57
2019-03-05T19:10:46.256Z,2.20
2019-03-05T19:13:18.612Z,2.10
2019-03-05T19:15:50.222Z,2.47
2019-03-05T19:18:19.730Z,2.27
2019-03-05T19:20:49.269Z,2.40
2019-03-05T19:23:19.063Z,2.40
2019-03-05T19:25:50.086Z,2.50
2019-03-05T19:28:19.484Z,2.60
2019-03-05T19:30:49.029Z,2.40
2019-03-05T19:33:18.605Z,2.73
2019-03-05T19:35:48.106Z,2.10
2019-03-05T19:38:17.717Z,2.73
2019-03-05T19:40:47.268Z,1.80
2019-03-05T19:43:16.667Z,1.43
2019-03-05T19:45:46.178Z,2.10
2019-03-05T19:48:15.697Z,2.13
2019-03-05T19:50:45.318Z,2.23
2019-03-05T19:53:14.769Z,2.33
2019-03-05T19:55:44.342Z,2.93
2019-03-05T19:58:14.061Z,2.80
2019-03-05T20:00:53.931Z,2.20
2019-03-05T20:03:26.751Z,2.20
2019-03-05T20:05:56.434Z,1.67
2019-03-05T20:08:26.127Z,1.90
2019-03-05T20:10:55.623Z,2.10
2019-03-05T20:13:25.165Z,1.90
2019-03-05T20:15:54.715Z,1.63
2019-03-05T20:18:24.216Z,1.60
2019-03-05T20:20:53.886Z,1.50
2019-03-05T20:23:23.685Z,1.57
2019-03-05T20:25:53.224Z,1.90
2019-03-05T20:28:24.846Z,1.93
2019-03-05T20:30:56.900Z,2.00
2019-03-05T20:33:27.604Z,2.00
2019-03-05T20:36:08.764Z,1.70
2019-03-05T20:38:40.253Z,1.90
2019-03-05T20:41:11.838Z,2.10
2019-03-05T20:43:42.994Z,2.10
2019-03-05T20:46:26.016Z,2.17
2019-03-05T20:48:55.922Z,2.30
2019-03-05T20:51:27.594Z,1.80
2019-03-05T20:53:57.288Z,1.90
2019-03-05T20:56:34.676Z,1.83
2019-03-05T20:59:04.057Z,2.10
2019-03-05T21:01:33.488Z,1.60
2019-03-05T21:04:03.180Z,2.43
2019-03-05T21:06:32.546Z,1.90
2019-03-05T21:09:02.344Z,2.03
2019-03-05T21:11:31.983Z,2.10
2019-03-05T21:14:01.393Z,2.03
2019-03-05T21:16:31.092Z,2.07
2019-03-05T21:19:00.623Z,2.40
2019-03-05T21:21:30.046Z,2.20
2019-03-05T21:23:59.534Z,2.30
2019-03-05T21:26:28.935Z,2.43
2019-03-05T21:28:58.282Z,2.17
2019-03-05T21:31:27.742Z,2.40
2019-03-05T21:33:57.109Z,2.00
2019-03-05T21:36:26.631Z,2.30
2019-03-05T21:38:56.004Z,2.13
2019-03-05T21:41:25.474Z,2.57
2019-03-05T21:43:54.899Z,2.07
2019-03-05T21:46:24.367Z,2.10
2019-03-05T21:48:53.766Z,2.30
2019-03-05T21:51:23.329Z,2.40
2019-03-05T21:54:01.335Z,2.10
2019-03-05T21:56:30.876Z,2.40
2019-03-05T21:59:00.292Z,2.27
2019-03-05T22:01:29.632Z,2.40
2019-03-05T22:03:59.030Z,2.00
2019-03-05T22:06:28.524Z,2.40
2019-03-05T22:08:58.003Z,1.90
2019-03-05T22:11:27.639Z,2.13
2019-03-05T22:13:57.308Z,2.60
2019-03-05T22:16:26.743Z,1.87
2019-03-05T22:18:56.140Z,1.80
2019-03-05T22:21:25.591Z,1.83
2019-03-05T22:23:55.189Z,1.90
2019-03-05T22:26:24.811Z,2.00
2019-03-05T22:28:54.320Z,2.17
2019-03-05T22:31:23.707Z,1.70
2019-03-05T22:33:53.199Z,1.90
2019-03-05T22:36:34.610Z,1.87
2019-03-05T22:39:04.490Z,1.80
2019-03-05T22:41:33.968Z,1.70
2019-03-05T22:44:03.363Z,1.60
2019-03-05T22:46:32.744Z,1.83
2019-03-05T22:49:02.129Z,1.57
2019-03-05T22:51:31.540Z,2.00
2019-03-05T22:54:01.053Z,1.40
2019-03-05T22:56:30.534Z,1.70
2019-03-05T22:59:00.275Z,1.70
2019-03-05T23:01:35.919Z,1.47
2019-03-05T23:04:05.432Z,1.43
2019-03-05T23:06:35.114Z,1.57
2019-03-05T23:09:08.114Z,1.70
2019-03-05T23:11:38.180Z,1.70
2019-03-05T23:14:08.044Z,1.33
2019-03-05T23:16:37.524Z,1.50
2019-03-05T23:19:07.088Z,1.50
2019-03-05T23:21:37.999Z,1.40
2019-03-05T23:24:07.572Z,1.40
2019-03-05T23:26:37.023Z,1.40
2019-03-05T23:29:08.064Z,1.57
2019-03-05T23:31:37.601Z,1.60
2019-03-05T23:34:07.043Z,1.40
2019-03-05T23:36:36.470Z,1.50
2019-03-05T23:39:08.522Z,1.47
2019-03-05T23:41:37.909Z,1.60
2019-03-05T23:44:07.442Z,1.30
2019-03-05T23:46:36.818Z,1.50
2019-03-05T23:49:06.381Z,1.50
2019-03-05T23:51:35.833Z,1.40
2019-03-05T23:54:05.299Z,1.40
2019-03-05T23:56:34.722Z,1.80
2019-03-05T23:59:04.431Z,1.50
